Terminal Aerodrome Forecast
Issued by NWS Charleston, WV

Home | Current Version | Previous Version | Text Only | Print | Product List | Glossary On
Versions: 1 2 3 4 5 6 7 8 9 10 11 12 13 14 15 16 17 18 19 20 21 22 23 24 25
761
FTUS41 KRLX 161919 AAA
TAFHTS
TAF AMD
KHTS 161919Z 1619/1718 24009G18KT P6SM SKC
     FM162200 23006KT P6SM SKC
     FM170400 00000KT P6SM SCT250
     FM171600 19004KT P6SM OVC120=

USA.gov is the U.S. government's official web portal to all federal, state and local government web resources and services.